• Join FlightAware (Why Join?)
  • Login
  • US Flag 
06:07AM EST


 

Airport Tracker/Info


-or-


 

Live Flight TrackerFlight Track Log ✈ N845AE ✈ 15-Apr-2013 ✈ KORD - KOMA

Flight Track Log - Related Links

Times and Time Zones

All times are in EDT time to prevent confusion due to time zone crossing. See the N845AE flight status page for this flight to view local times or setup timezone preferences in your user account.

Time Position Orientation Groundspeed Altitude Reporting Facility
EDT Latitude Longitude Course Direction KTS MPH feet Rate Location/Type
04:57PM 42.0000 -87.9833 261° West 171 197 2,800  Level Chicago TRACON
04:58PM 41.9463 -88.1221 257° West  Level FlightAware Approximate
04:58PM 42.0000 -88.0500 270° West 216 249 4,600  Level Chicago TRACON
04:59PM 41.9333 -88.2349 270° West  Level FlightAware Approximate
04:59PM 42.0000 -88.1500 270° West 226 260 7,800  Level Chicago TRACON
05:00PM 41.9302 -88.3490 255° West  Level FlightAware Approximate
05:00PM 42.0119 -88.2356 281° West 239 275 9,400  Level Chicago Center
05:01PM 41.9167 -88.4613 270° West  Level FlightAware Approximate
05:01PM 42.0203 -88.3600 275° West 276 318 11,000  Level Chicago Center
05:02PM 41.9030 -88.5838 261° West  Level FlightAware Approximate
05:02PM 42.0011 -88.4750 257° West 316 364 12,200  Level Chicago Center
05:03PM 41.9725 -88.5839 251° West 314 361 14,300 1,920 Climbing Chicago Center
05:04PM 41.9419 -88.6869 248° West 303 349 16,200 1,800 Climbing Chicago Center
05:05PM 41.9400 -88.7942 269° West 291 335 18,100 1,680 Climbing Chicago Center
05:06PM 41.9478 -88.9244 275° West 294 338 19,700 1,260 Climbing Chicago Center
05:07PM 41.9678 -89.0406 283° West 314 361 20,800 1,080 Climbing Chicago Center
05:08PM 41.9928 -89.1589 286° West 332 382 22,000 1,020 Climbing Chicago Center
05:09PM 42.0161 -89.2831 284° West 342 394 23,000 480 Climbing Chicago Center
05:10PM 42.0467 -89.4111 288° West 362 417 23,100 540 Climbing Chicago Center
05:11PM 42.0572 -89.5708 275° West 363 418 24,200 960 Climbing Chicago Center
05:12PM 42.0450 -89.6997 263° West 354 407 25,200 1,080 Climbing Chicago Center
05:13PM 42.0300 -89.8264 261° West 347 399 26,500 1,020 Climbing Chicago Center
05:14PM 42.0156 -89.9581 262° West 338 389 27,400 1,140 Climbing Chicago Center
05:15PM 41.9972 -90.0797 259° West 334 384 28,900 1,320 Climbing Chicago Center
05:16PM 41.9819 -90.1947 260° West 320 368 30,200 1,200 Climbing Chicago Center
05:17PM 41.9658 -90.3114 260° West 318 366 31,400 840 Climbing Chicago Center
05:18PM 41.9467 -90.4506 260° West 319 367 32,000 420 Climbing Chicago Center
05:19PM 41.9283 -90.5781 259° West 342 394 32,300 540 Climbing Chicago Center
05:21PM 41.9072 -90.7111 258° West 362 417 33,200 780 Climbing Chicago Center
05:22PM 41.8886 -90.8369 259° West 351 404 34,000 360 Climbing Chicago Center
05:23PM 41.8711 -90.9614 259° West 342 394 34,000  Level Chicago Center
05:24PM 41.8483 -91.1117 259° West 344 396 34,000  Level Chicago Center
05:25PM 41.8306 -91.2367 259° West 344 396 34,000  Level Chicago Center
05:26PM 41.8111 -91.3586 258° West 338 389 34,000  Level Chicago Center
05:27PM 41.7922 -91.4800 258° West 336 387 34,000  Level Chicago Center
05:28PM 41.7853 -91.6039 266° West 336 387 34,000 -240 Level Chicago Center
05:29PM 41.7781 -91.7272 266° West 335 386 33,600 -720 Descending Chicago Center
05:30PM 41.7694 -91.8742 266° West 333 383 32,600 -780 Descending Chicago Center
05:31PM 41.7608 -91.9992 265° West 337 388 32,000 -300 Descending Chicago Center
05:32PM 41.7528 -92.1250 265° West 339 390 32,000  Level Chicago Center
05:33PM 41.7439 -92.2503 265° West 339 390 32,000  Level Chicago Center
05:34PM 41.7358 -92.3725 265° West 334 384 32,000  Level Chicago Center
05:35PM 41.7256 -92.5206 265° West 335 386 32,000  Level Chicago Center
05:36PM 41.7161 -92.6450 264° West 336 387 32,000  Level Chicago Center
05:36PM 41.7122 -92.6975 264° West 337 388 32,000  Level Minneapolis Center
05:37PM 41.7047 -92.8250 266° West 341 392 32,000  Level Minneapolis Center
05:38PM 41.6942 -92.9492 264° West 341 392 32,000  Level Minneapolis Center
05:40PM 41.6842 -93.0783 264° West 345 397 32,000  Level Minneapolis Center
05:41PM 41.6733 -93.2303 265° West 346 398 32,000  Level Minneapolis Center
05:42PM 41.6633 -93.3569 264° West 347 399 32,000  Level Minneapolis Center
05:43PM 41.6536 -93.4833 264° West 346 398 32,000 -600 Level Minneapolis Center
05:44PM 41.6428 -93.6117 264° West 348 400 30,800 -1,200 Descending Minneapolis Center
05:45PM 41.6322 -93.7397 264° West 349 402 29,600 -1,260 Descending Minneapolis Center
05:46PM 41.6239 -93.8675 265° West 350 403 28,300 -1,440 Descending Minneapolis Center
05:47PM 41.6106 -94.0278 264° West 361 415 26,700 -1,380 Descending Minneapolis Center
05:48PM 41.5994 -94.1625 264° West 367 422 25,500 -1,260 Descending Minneapolis Center
05:49PM 41.5867 -94.3042 263° West 370 426 24,200 -1,320 Descending Minneapolis Center
05:50PM 41.5758 -94.4358 264° West 359 413 22,800 -1,320 Descending Minneapolis Center
05:51PM 41.5633 -94.5642 263° West 351 404 21,600 -1,260 Descending Minneapolis Center
05:52PM 41.5650 -94.7397 271° West 358 412 20,000 -1,380 Descending Minneapolis Center
05:52PM 41.5592 -94.8019 263° West 365 420 19,400 -1,200 Descending Minneapolis Center
05:53PM 41.5411 -94.8311 230° Southwest 364 419 19,000 -1,260 Descending Minneapolis Center
05:54PM 41.5447 -94.9458 272° West 365 420 18,000 -1,260 Descending Minneapolis Center
05:54PM 41.5294 -94.9631 220° Southwest 359 413 17,700 -1,320 Descending Minneapolis Center
05:55PM 41.5292 -95.0761 270° West 358 412 16,700 -1,620 Descending Minneapolis Center
05:55PM 41.5147 -95.1186 246° West 355 409 16,100 -1,500 Descending Minneapolis Center
05:56PM 41.5022 -95.1939 258° West 341 392 15,200 -1,560 Descending Minneapolis Center
05:56PM 41.4692 -95.2267 217° Southwest 349 402 14,500 -2,100 Descending Minneapolis Center
05:57PM 41.4386 -95.2994 241° Southwest 340 391 13,100 -2,160 Descending Minneapolis Center
05:57PM 41.4119 -95.3236 214° Southwest 340 391 12,300 -2,040 Descending Minneapolis Center
05:58PM 41.3878 -95.3808 241° Southwest 272 313 11,100 -1,860 Descending Minneapolis Center
05:58PM 41.3544 -95.4147 217° Southwest 299 344 10,100 -1,740 Descending Minneapolis Center
05:59PM 41.3456 -95.4639 256° West 238 274 9,200 -1,680 Descending Minneapolis Center
05:59PM 41.3261 -95.4967 232° Southwest 265 305 8,400 -1,680 Descending Minneapolis Center
06:00PM 41.3175 -95.5422 256° West 238 274 7,500 -1,680 Descending Minneapolis Center
06:00PM 41.2983 -95.5778 234° Southwest 250 288 6,700 -1,800 Descending Minneapolis Center
06:01PM 41.2817 -95.6297 247° West 247 284 5,700 -2,160 Descending Minneapolis Center